Time;durP1;ratioP1;P1;durP2;ratioP2;P2;SDS_P1;SDS_P2;PMS_P1;PMS_P2;Temp;Humidity;BMP_temperature;BMP_pressure;BME280_temperature;BME280_humidity;BME280_pressure;Samples;Min_cycle;Max_cycle;Signal;HPM_P1;HPM_P2
2021/12/07 00:00:50;;;;;;;8.88;3.08;;;7.60;83.60;;;;;;5015403;28;20030;-83
2021/12/07 00:03:16;;;;;;;7.28;2.88;;;7.50;83.30;;;;;;5033457;28;20833;-83
2021/12/07 00:05:42;;;;;;;7.68;2.55;;;7.40;83.50;;;;;;5033242;28;20029;-83
2021/12/07 00:08:08;;;;;;;7.95;2.85;;;7.30;83.60;;;;;;5019227;28;20041;-83
2021/12/07 00:10:35;;;;;;;11.00;2.80;;;7.30;83.50;;;;;;5014934;28;20022;-83
2021/12/07 00:13:01;;;;;;;6.70;2.45;;;7.20;83.60;;;;;;5033482;28;20076;-83
2021/12/07 00:15:29;;;;;;;4.40;2.35;;;7.20;83.50;;;;;;5019530;28;20061;-83
2021/12/07 00:17:55;;;;;;;12.52;3.30;;;7.20;83.70;;;;;;5015394;28;20022;-83
2021/12/07 00:20:22;;;;;;;6.85;2.70;;;7.20;83.80;;;;;;5015388;28;20033;-83
2021/12/07 00:22:53;;;;;;;10.55;3.13;;;7.10;83.70;;;;;;5014975;28;20033;-83
2021/12/07 00:25:23;;;;;;;10.57;3.08;;;7.00;83.80;;;;;;5014625;28;20075;-83
2021/12/07 00:27:49;;;;;;;6.50;2.42;;;7.10;83.90;;;;;;5015149;28;20057;-83
2021/12/07 00:30:16;;;;;;;10.68;2.42;;;7.00;83.70;;;;;;5016958;28;20165;-82
2021/12/07 00:32:48;;;;;;;8.27;2.50;;;7.00;83.80;;;;;;5033110;28;20029;-83
2021/12/07 00:38:00;;;;;;;8.45;2.58;;;7.00;83.70;;;;;;5015040;28;20040;-83
2021/12/07 00:40:26;;;;;;;10.55;2.92;;;6.90;83.70;;;;;;5014694;28;20048;-83
2021/12/07 00:42:52;;;;;;;7.82;2.50;;;6.90;84.00;;;;;;5015516;28;20112;-83
2021/12/07 00:45:21;;;;;;;8.60;2.30;;;6.80;83.80;;;;;;5028806;28;20029;-83
2021/12/07 00:48:10;;;;;;;7.93;2.55;;;6.80;83.80;;;;;;5036925;28;20095;-83
2021/12/07 00:50:38;;;;;;;6.95;2.05;;;6.90;83.80;;;;;;5014605;28;20373;-83
2021/12/07 00:53:05;;;;;;;12.52;2.97;;;6.80;83.50;;;;;;5019285;28;20404;-83
2021/12/07 00:55:39;;;;;;;11.73;2.78;;;6.80;84.00;;;;;;5014615;28;20132;-83
2021/12/07 00:58:16;;;;;;;11.98;3.08;;;6.80;84.00;;;;;;5014204;28;20033;-83
2021/12/07 01:00:42;;;;;;;10.15;2.03;;;6.80;84.00;;;;;;5017832;28;20026;-83
2021/12/07 01:03:08;;;;;;;11.68;2.70;;;6.70;83.90;;;;;;5028972;28;20064;-83
2021/12/07 01:05:35;;;;;;;6.18;2.58;;;6.70;84.10;;;;;;5034476;28;20029;-83
2021/12/07 01:25:04;;;;;;;6.18;2.30;;;6.70;83.90;;;;;;5032778;28;20108;-83
2021/12/07 01:27:30;;;;;;;9.02;2.40;;;6.70;84.00;;;;;;5022342;28;20049;-83
2021/12/07 01:30:47;;;;;;;15.52;2.63;;;6.70;83.90;;;;;;5014955;28;20573;-84
2021/12/07 01:38:31;;;;;;;9.90;2.88;;;6.60;84.00;;;;;;5017536;28;20026;-83
2021/12/07 01:59:59;;;;;;;6.78;1.98;;;6.50;84.20;;;;;;5037820;28;20040;-83
2021/12/07 02:02:27;;;;;;;10.32;2.20;;;6.40;84.20;;;;;;5023917;28;20109;-83
2021/12/07 02:04:55;;;;;;;6.90;2.75;;;6.30;84.10;;;;;;5017564;28;20480;-83
2021/12/07 02:07:21;;;;;;;7.57;2.28;;;6.30;84.40;;;;;;5016616;28;20499;-83
2021/12/07 02:09:52;;;;;;;6.38;2.25;;;6.30;84.40;;;;;;5017230;28;20037;-83
2021/12/07 02:12:18;;;;;;;9.93;2.53;;;6.30;84.50;;;;;;5017275;28;20033;-83
2021/12/07 02:14:44;;;;;;;11.60;2.33;;;6.30;84.50;;;;;;5017626;28;20128;-83
2021/12/07 02:17:15;;;;;;;7.20;2.03;;;6.30;84.80;;;;;;5015999;28;20058;-83
2021/12/07 02:19:41;;;;;;;6.85;2.30;;;6.30;84.50;;;;;;5017388;28;20028;-84
2021/12/07 02:22:07;;;;;;;7.28;2.58;;;6.30;84.30;;;;;;5017803;28;20054;-84
2021/12/07 02:24:46;;;;;;;;;;;;;;;;;;;;;
2021/12/07 02:27:12;;;;;;;5.82;2.30;;;6.20;84.20;;;;;;5036875;28;20035;-84
2021/12/07 02:29:38;;;;;;;6.70;2.03;;;6.20;84.20;;;;;;5021978;28;20460;-83
2021/12/07 02:32:05;;;;;;;6.30;2.25;;;6.20;84.20;;;;;;5017137;28;20029;-84
2021/12/07 02:34:31;;;;;;;4.35;2.10;;;6.20;84.00;;;;;;5016907;28;20658;-83
2021/12/07 02:36:59;;;;;;;12.23;2.85;;;6.20;84.20;;;;;;5017232;28;20118;-83
2021/12/07 02:39:34;;;;;;;5.80;2.72;;;6.20;84.20;;;;;;5016856;28;20496;-83
2021/12/07 02:42:01;;;;;;;10.07;3.42;;;6.20;84.00;;;;;;5017341;28;20021;-83
2021/12/07 02:44:27;;;;;;;19.33;4.00;;;6.10;83.90;;;;;;5017084;28;20030;-83
2021/12/07 02:46:53;;;;;;;14.05;4.22;;;6.10;84.10;;;;;;5054906;28;20062;-83
2021/12/07 02:49:20;;;;;;;11.70;3.67;;;6.00;84.20;;;;;;5040337;28;20104;-83
2021/12/07 02:51:47;;;;;;;6.75;3.28;;;6.10;84.30;;;;;;5016606;28;20025;-83
2021/12/07 02:54:12;;;;;;;6.80;3.60;;;6.00;84.40;;;;;;5015399;28;20068;-83
2021/12/07 02:56:38;;;;;;;12.35;3.65;;;6.10;84.20;;;;;;5018680;28;20022;-83
2021/12/07 02:59:13;;;;;;;10.68;3.05;;;6.00;84.00;;;;;;5034982;28;20030;-83
2021/12/07 03:01:45;;;;;;;9.90;3.58;;;5.90;84.20;;;;;;5028712;28;20030;-83
2021/12/07 03:04:18;;;;;;;7.90;3.15;;;5.90;84.20;;;;;;5015032;28;20034;-83
2021/12/07 03:26:11;;;;;;;9.15;3.15;;;5.80;85.10;;;;;;5016234;28;20104;-83
2021/12/07 03:28:45;;;;;;;8.43;3.20;;;5.80;85.00;;;;;;5016110;28;20061;-83
2021/12/07 03:31:12;;;;;;;9.30;3.55;;;5.70;85.00;;;;;;5016034;28;20407;-83
2021/12/07 03:33:39;;;;;;;9.50;3.45;;;5.70;85.20;;;;;;5016209;28;20026;-83
2021/12/07 03:36:07;;;;;;;6.80;3.35;;;5.70;85.40;;;;;;5016169;28;20026;-84
2021/12/07 03:38:53;;;;;;;9.93;2.95;;;5.60;85.70;;;;;;5016047;28;20022;-83
2021/12/07 03:41:20;;;;;;;7.28;3.20;;;5.60;85.90;;;;;;5014086;28;20041;-83
2021/12/07 03:43:47;;;;;;;10.45;3.33;;;5.70;85.70;;;;;;5015540;28;20064;-84
2021/12/07 03:46:13;;;;;;;9.93;3.35;;;5.70;85.60;;;;;;5020787;28;20034;-84
2021/12/07 03:48:41;;;;;;;9.70;2.97;;;5.60;85.00;;;;;;5015880;28;20022;-83
2021/12/07 03:51:08;;;;;;;7.00;3.20;;;5.70;85.20;;;;;;5015654;28;20698;-83
2021/12/07 03:53:35;;;;;;;6.90;3.60;;;5.70;85.20;;;;;;5015499;28;20037;-83
2021/12/07 03:56:05;;;;;;;7.22;3.33;;;5.80;85.00;;;;;;5015565;28;20034;-83
2021/12/07 03:58:31;;;;;;;10.95;3.33;;;5.80;84.90;;;;;;5027697;28;20021;-84
2021/12/07 04:00:57;;;;;;;9.98;3.33;;;5.80;84.60;;;;;;5014894;28;20543;-84
2021/12/07 04:03:22;;;;;;;15.77;3.22;;;5.70;84.60;;;;;;5015864;28;20034;-83
2021/12/07 04:05:53;;;;;;;12.02;3.28;;;5.80;84.80;;;;;;5015542;28;20026;-83
2021/12/07 04:08:25;;;;;;;9.45;3.10;;;5.70;84.90;;;;;;5013966;28;20750;-83
2021/12/07 04:10:52;;;;;;;9.95;3.05;;;5.80;84.60;;;;;;5015437;28;20034;-84
2021/12/07 04:13:18;;;;;;;9.30;2.80;;;5.80;84.60;;;;;;5016034;28;20053;-84
2021/12/07 04:15:44;;;;;;;10.80;3.22;;;5.80;84.80;;;;;;5015597;28;20512;-84
2021/12/07 04:18:10;;;;;;;9.13;2.80;;;5.80;84.70;;;;;;5014199;28;20098;-84
2021/12/07 04:20:36;;;;;;;11.93;2.85;;;5.70;84.80;;;;;;5014118;28;20037;-84
2021/12/07 04:23:03;;;;;;;5.13;2.28;;;5.70;84.80;;;;;;5015344;28;20102;-84
2021/12/07 04:25:29;;;;;;;7.57;2.83;;;5.80;84.90;;;;;;5014144;28;20519;-84
2021/12/07 04:27:55;;;;;;;2.58;2.08;;;5.70;85.00;;;;;;5015235;28;20488;-84
2021/12/07 04:30:42;;;;;;;8.50;3.20;;;5.70;85.00;;;;;;5014109;28;20034;-83
2021/12/07 04:33:09;;;;;;;10.05;2.97;;;5.60;85.30;;;;;;5015203;28;20097;-83
2021/12/07 04:35:52;;;;;;;15.65;3.08;;;5.60;85.30;;;;;;5015323;28;20033;-83
2021/12/07 04:38:18;;;;;;;6.78;3.05;;;5.60;85.40;;;;;;5015010;28;20048;-84
2021/12/07 04:40:44;;;;;;;8.02;2.90;;;5.60;85.40;;;;;;5015341;28;20026;-83
2021/12/07 04:43:11;;;;;;;9.10;3.13;;;5.60;85.50;;;;;;5015863;28;20030;-84
2021/12/07 04:59:05;;;;;;;3.83;2.67;;;5.70;85.10;;;;;;5015199;28;20113;-84
2021/12/07 05:01:32;;;;;;;8.82;3.05;;;5.60;85.40;;;;;;5015392;28;20029;-84
2021/12/07 05:04:18;;;;;;;;;;;;;;;;;;;;;
2021/12/07 05:06:49;;;;;;;7.97;2.60;;;5.50;85.40;;;;;;5014581;28;20040;-84
2021/12/07 05:11:53;;;;;;;6.53;3.00;;;5.60;85.10;;;;;;5015916;28;20049;-83
2021/12/07 05:14:24;;;;;;;8.63;3.67;;;5.50;85.10;;;;;;5018412;28;20408;-84
2021/12/07 05:25:32;;;;;;;8.57;2.90;;;5.30;86.20;;;;;;5018814;28;20080;-85
2021/12/07 05:38:37;;;;;;;6.18;3.22;;;5.30;86.20;;;;;;5019130;28;20156;-86
2021/12/07 05:41:07;;;;;;;5.72;2.03;;;5.30;86.20;;;;;;5018301;28;20022;-87
2021/12/07 05:43:33;;;;;;;;;;;5.30;85.90;;;;;;5018478;28;20058;-88
2021/12/07 05:45:58;;;;;;;5.68;2.60;;;5.30;86.10;;;;;;5046876;28;19919;-86
2021/12/07 05:48:24;;;;;;;6.78;2.83;;;5.30;86.00;;;;;;5056473;28;20061;-87
2021/12/07 07:47:35;;;;;;;3.63;1.90;;;5.60;92.90;;;;;;5070232;28;20413;-77
2021/12/07 07:50:00;;;;;;;5.50;2.28;;;5.70;92.70;;;;;;5049865;28;20017;-77
2021/12/07 07:52:26;;;;;;;10.20;3.17;;;6.00;92.10;;;;;;5050822;28;20048;-77
2021/12/07 07:54:57;;;;;;;2.78;1.65;;;6.30;91.50;;;;;;5050472;28;20018;-77
2021/12/07 07:57:22;;;;;;;10.85;2.80;;;6.50;90.70;;;;;;5048699;28;20116;-75
2021/12/07 07:59:48;;;;;;;9.73;2.45;;;6.70;90.40;;;;;;5049958;28;20048;-77
2021/12/07 08:02:14;;;;;;;8.23;3.03;;;6.80;90.00;;;;;;5049649;28;20044;-77
2021/12/07 08:04:40;;;;;;;6.80;2.05;;;6.90;89.80;;;;;;5049833;28;20043;-77
2021/12/07 08:07:06;;;;;;;8.85;2.28;;;7.00;89.50;;;;;;5051892;28;20033;-77
2021/12/07 08:09:31;;;;;;;6.95;1.70;;;7.00;89.30;;;;;;5051905;28;20041;-77
2021/12/07 08:12:15;;;;;;;7.78;2.80;;;7.10;89.10;;;;;;5045823;28;20021;-77
2021/12/07 08:14:40;;;;;;;6.55;2.67;;;7.20;89.00;;;;;;5050828;28;20559;-77
2021/12/07 08:17:06;;;;;;;8.85;1.75;;;7.20;88.90;;;;;;5051161;28;20021;-77
2021/12/07 08:19:33;;;;;;;11.02;3.10;;;7.30;88.80;;;;;;5050283;28;20030;-76
2021/12/07 08:21:58;;;;;;;8.30;2.25;;;7.30;88.70;;;;;;5051032;28;20116;-77
2021/12/07 08:24:24;;;;;;;13.75;2.55;;;7.40;88.70;;;;;;5050036;28;20056;-77
2021/12/07 08:26:50;;;;;;;12.23;2.22;;;7.40;88.70;;;;;;5051129;28;20029;-77
2021/12/07 08:29:16;;;;;;;7.93;2.58;;;7.50;88.60;;;;;;5047226;28;20067;-77
2021/12/07 08:31:43;;;;;;;11.65;2.55;;;7.50;88.50;;;;;;5044640;28;20029;-77
2021/12/07 08:34:09;;;;;;;3.67;2.33;;;7.60;88.50;;;;;;5050712;28;20013;-77
2021/12/07 08:36:35;;;;;;;6.90;2.47;;;7.70;88.40;;;;;;5051361;28;20094;-77
2021/12/07 08:39:00;;;;;;;12.35;3.97;;;7.70;88.50;;;;;;5047020;28;20028;-77
2021/12/07 08:41:26;;;;;;;12.10;3.40;;;7.70;88.70;;;;;;5049909;28;20489;-77
2021/12/07 08:43:52;;;;;;;6.38;2.38;;;7.80;88.70;;;;;;5041046;28;20030;-77
2021/12/07 08:46:18;;;;;;;15.18;3.20;;;7.80;88.70;;;;;;5046293;28;20131;-77
2021/12/07 08:48:44;;;;;;;11.55;2.63;;;7.80;88.80;;;;;;5034165;28;20083;-77
2021/12/07 08:51:12;;;;;;;17.73;3.80;;;7.90;88.90;;;;;;5050747;28;20055;-77
2021/12/07 08:53:44;;;;;;;5.15;2.15;;;7.90;89.00;;;;;;5047903;28;20072;-78
2021/12/07 09:01:38;;;;;;;9.82;2.97;;;8.20;89.30;;;;;;5016561;28;20036;-77
2021/12/07 09:04:05;;;;;;;10.73;3.53;;;8.20;89.50;;;;;;5018273;28;20555;-78
2021/12/07 09:06:32;;;;;;;14.73;3.17;;;8.30;89.60;;;;;;5017846;28;20503;-77
2021/12/07 09:08:58;;;;;;;12.77;2.88;;;8.30;89.50;;;;;;5018123;28;20022;-77
2021/12/07 09:11:24;;;;;;;9.98;3.72;;;8.40;89.70;;;;;;5017884;28;20083;-77
2021/12/07 09:13:50;;;;;;;9.57;3.85;;;8.40;90.00;;;;;;5017806;28;20026;-77
2021/12/07 09:16:18;;;;;;;11.18;3.45;;;8.50;89.90;;;;;;5017664;28;20056;-77
2021/12/07 09:18:44;;;;;;;11.32;3.50;;;8.50;90.00;;;;;;5016423;28;20420;-77
2021/12/07 09:21:10;;;;;;;6.10;3.25;;;8.60;90.00;;;;;;5017553;28;20117;-77
2021/12/07 09:23:36;;;;;;;11.15;3.20;;;8.70;89.90;;;;;;5017669;28;20068;-77
2021/12/07 09:26:04;;;;;;;11.60;3.40;;;8.70;89.90;;;;;;5017694;28;20038;-77
2021/12/07 09:28:29;;;;;;;10.02;3.95;;;8.70;89.80;;;;;;5017605;28;20029;-77
2021/12/07 09:30:56;;;;;;;10.95;5.25;;;8.70;89.70;;;;;;5017391;28;20109;-77
2021/12/07 09:33:24;;;;;;;11.85;2.83;;;8.70;89.60;;;;;;5017106;28;20022;-77
2021/12/07 09:35:51;;;;;;;12.90;3.92;;;8.70;89.70;;;;;;5017180;28;20041;-78
2021/12/07 09:38:18;;;;;;;12.77;4.35;;;8.80;89.50;;;;;;5017021;28;20481;-77
2021/12/07 09:40:46;;;;;;;9.20;3.28;;;8.80;89.30;;;;;;5017309;28;20040;-77
2021/12/07 09:43:12;;;;;;;9.82;2.70;;;8.80;89.30;;;;;;5022811;28;20018;-77
2021/12/07 09:45:40;;;;;;;10.65;2.95;;;8.70;89.30;;;;;;5037978;28;20053;-77
2021/12/07 09:48:07;;;;;;;21.15;3.30;;;8.90;89.20;;;;;;5056841;28;20021;-77
2021/12/07 09:50:35;;;;;;;9.90;2.80;;;8.90;89.20;;;;;;5024687;28;20026;-77
2021/12/07 09:53:03;;;;;;;11.15;3.13;;;8.80;89.10;;;;;;5017070;28;20014;-77
2021/12/07 09:55:29;;;;;;;19.90;4.43;;;8.90;89.10;;;;;;5016640;28;20050;-77
2021/12/07 09:57:56;;;;;;;8.48;2.03;;;8.90;89.00;;;;;;5017023;28;20025;-78
2021/12/07 10:00:25;;;;;;;10.95;3.83;;;9.00;89.10;;;;;;5017715;28;20065;-77
2021/12/07 10:02:51;;;;;;;8.45;3.40;;;9.00;89.30;;;;;;5016903;28;20014;-77
2021/12/07 10:05:19;;;;;;;5.50;2.80;;;9.00;89.20;;;;;;5017013;28;20087;-77
2021/12/07 10:07:46;;;;;;;10.70;3.65;;;9.00;89.40;;;;;;5016633;28;20148;-78
2021/12/07 10:10:22;;;;;;;11.70;3.65;;;9.10;89.40;;;;;;5015693;28;20055;-77
2021/12/07 10:12:48;;;;;;;9.20;3.40;;;9.20;89.40;;;;;;5014989;28;20018;-77
2021/12/07 10:15:15;;;;;;;11.90;3.40;;;9.20;89.30;;;;;;5017016;28;20026;-77
2021/12/07 10:17:42;;;;;;;14.45;3.38;;;9.20;89.50;;;;;;5016982;28;20030;-77
2021/12/07 10:20:39;;;;;;;15.13;3.67;;;9.20;89.40;;;;;;5016571;28;20034;-77
2021/12/07 10:23:14;;;;;;;12.45;3.25;;;9.30;89.60;;;;;;5016471;28;20018;-77
2021/12/07 10:25:40;;;;;;;8.07;2.53;;;9.30;89.60;;;;;;5015996;28;20038;-77
2021/12/07 10:28:38;;;;;;;11.18;3.00;;;9.40;89.70;;;;;;5015189;28;20026;-78
2021/12/07 10:31:07;;;;;;;11.25;3.45;;;9.50;89.60;;;;;;5016544;28;20060;-77
2021/12/07 10:33:45;;;;;;;13.88;3.97;;;9.50;89.70;;;;;;5016302;28;20022;-77
2021/12/07 10:36:18;;;;;;;8.98;2.85;;;9.50;89.70;;;;;;5016717;28;20059;-77
2021/12/07 10:38:56;;;;;;;13.90;3.80;;;9.50;89.70;;;;;;5016441;28;20084;-77
2021/12/07 10:41:24;;;;;;;14.88;3.55;;;9.50;89.70;;;;;;5016055;28;20076;-77
2021/12/07 10:44:07;;;;;;;11.75;4.07;;;9.60;89.70;;;;;;5021707;28;20064;-77
2021/12/07 10:46:45;;;;;;;13.35;3.17;;;9.60;89.80;;;;;;5051891;28;20072;-77
2021/12/07 10:49:32;;;;;;;8.48;3.55;;;9.70;89.70;;;;;;5048590;28;20029;-78
2021/12/07 10:52:04;;;;;;;11.35;3.08;;;9.70;89.50;;;;;;5015871;28;20538;-77
2021/12/07 10:54:57;;;;;;;13.25;3.70;;;9.80;89.30;;;;;;5016228;28;20052;-78
2021/12/07 10:57:27;;;;;;;8.93;3.15;;;9.80;89.10;;;;;;5014609;28;20077;-78
2021/12/07 11:00:09;;;;;;;6.57;2.80;;;9.80;89.20;;;;;;5016060;28;20540;-77
2021/12/07 11:02:37;;;;;;;9.85;2.60;;;9.90;89.00;;;;;;5015963;28;20034;-78
2021/12/07 11:05:10;;;;;;;18.85;2.65;;;10.00;89.00;;;;;;5015321;28;20079;-78
2021/12/07 11:07:37;;;;;;;19.65;3.50;;;10.10;88.90;;;;;;5015911;28;20488;-77
2021/12/07 11:10:15;;;;;;;14.50;2.53;;;10.00;88.80;;;;;;5014919;28;20109;-78
2021/12/07 11:12:56;;;;;;;10.93;2.90;;;10.10;88.80;;;;;;5015671;28;20029;-77
2021/12/07 11:15:25;;;;;;;6.05;1.38;;;10.00;88.80;;;;;;5014348;28;20038;-78
2021/12/07 11:18:06;;;;;;;10.85;2.65;;;10.00;88.90;;;;;;5015460;28;20468;-78
2021/12/07 11:20:32;;;;;;;13.40;2.67;;;10.00;89.00;;;;;;5015684;28;20443;-77
2021/12/07 11:23:20;;;;;;;12.95;2.72;;;10.00;89.10;;;;;;5014079;28;20030;-77
2021/12/07 11:29:39;;;;;;;15.07;3.08;;;10.10;89.00;;;;;;5015549;28;20496;-78
2021/12/07 11:31:38;;;;;;;7.82;2.63;;;10.20;88.90;;;;;;5016028;28;20044;-78
2021/12/07 11:34:17;;;;;;;7.53;2.22;;;10.20;88.90;;;;;;5015301;28;20088;-77
2021/12/07 11:36:42;;;;;;;8.90;2.25;;;10.20;88.90;;;;;;5015469;28;20143;-77
2021/12/07 11:39:52;;;;;;;6.47;2.65;;;10.20;89.00;;;;;;5015289;28;20057;-77
2021/12/07 11:42:38;;;;;;;4.18;1.70;;;10.20;89.10;;;;;;5017435;28;20069;-77
2021/12/07 11:45:09;;;;;;;6.18;2.20;;;10.20;89.30;;;;;;5025577;28;20033;-77
2021/12/07 11:47:40;;;;;;;11.18;2.65;;;10.20;89.40;;;;;;5054966;28;20044;-77
2021/12/07 11:50:29;;;;;;;14.63;2.22;;;10.20;89.40;;;;;;5040226;28;20365;-77
2021/12/07 11:52:59;;;;;;;5.13;2.20;;;10.20;89.70;;;;;;5014295;28;20042;-77
2021/12/07 11:55:25;;;;;;;13.35;3.05;;;10.20;89.80;;;;;;5014262;28;20030;-77
2021/12/07 11:57:52;;;;;;;4.75;2.60;;;10.20;89.80;;;;;;5015068;28;20471;-77
2021/12/07 12:00:22;;;;;;;5.72;2.00;;;10.20;89.90;;;;;;5015044;28;20563;-77
2021/12/07 12:02:49;;;;;;;17.40;2.65;;;10.20;89.90;;;;;;5015089;28;20552;-77
2021/12/07 12:05:16;;;;;;;5.32;1.55;;;10.20;90.10;;;;;;5015315;28;20105;-77
2021/12/07 12:07:45;;;;;;;4.57;2.15;;;10.20;90.00;;;;;;5014883;28;20042;-77
2021/12/07 12:10:13;;;;;;;10.55;2.72;;;10.20;90.20;;;;;;5015143;28;20026;-77
2021/12/07 12:13:01;;;;;;;7.55;2.05;;;10.20;90.30;;;;;;5015413;28;20121;-76
2021/12/07 12:15:45;;;;;;;14.60;2.05;;;10.20;90.20;;;;;;5014930;28;20047;-76
2021/12/07 12:18:42;;;;;;;8.15;1.55;;;10.20;90.10;;;;;;5014640;28;20593;-77
2021/12/07 12:21:26;;;;;;;8.35;1.80;;;10.20;90.20;;;;;;5014746;28;20452;-76
2021/12/07 12:24:25;;;;;;;8.65;2.47;;;10.30;89.70;;;;;;5014811;28;20030;-77
2021/12/07 12:27:27;;;;;;;12.75;3.58;;;10.30;89.80;;;;;;5017649;28;20033;-77
2021/12/07 12:29:54;;;;;;;9.02;1.60;;;10.30;89.90;;;;;;5014722;28;20104;-77
2021/12/07 12:32:31;;;;;;;6.40;1.73;;;10.30;89.50;;;;;;5014945;28;20477;-76
2021/12/07 12:34:57;;;;;;;6.80;2.00;;;10.40;89.70;;;;;;5032425;28;20575;-76
2021/12/07 12:37:27;;;;;;;7.85;2.33;;;10.30;89.70;;;;;;5018894;28;20061;-76
2021/12/07 12:39:57;;;;;;;4.93;1.35;;;10.30;89.50;;;;;;5026435;28;20032;-76
2021/12/07 12:42:32;;;;;;;7.32;2.13;;;10.30;89.70;;;;;;5038002;28;20030;-76
2021/12/07 12:45:07;;;;;;;6.38;2.17;;;10.20;89.90;;;;;;5027394;28;20064;-77
2021/12/07 12:47:33;;;;;;;4.30;1.77;;;10.30;90.00;;;;;;5024246;28;20034;-76
2021/12/07 12:50:16;;;;;;;3.85;1.00;;;10.20;90.00;;;;;;5018658;28;20083;-76
2021/12/07 12:52:54;;;;;;;7.05;1.88;;;10.20;89.90;;;;;;5030985;28;20022;-77
2021/12/07 12:55:33;;;;;;;6.38;1.80;;;10.30;89.80;;;;;;5037987;28;20022;-77
2021/12/07 12:58:00;;;;;;;7.20;1.60;;;10.20;89.90;;;;;;5037271;28;20021;-77
2021/12/07 13:01:09;;;;;;;11.50;1.88;;;10.30;90.00;;;;;;5018132;28;20018;-77
2021/12/07 13:03:44;;;;;;;6.70;1.55;;;10.20;89.80;;;;;;5018405;28;20101;-77
2021/12/07 13:06:14;;;;;;;9.23;1.70;;;10.20;90.10;;;;;;5017776;28;20057;-76
2021/12/07 13:08:55;;;;;;;6.03;1.48;;;10.10;90.30;;;;;;5018277;28;20345;-77
2021/12/07 13:11:45;;;;;;;3.33;1.27;;;10.00;90.20;;;;;;5017575;28;20053;-76
2021/12/07 13:14:27;;;;;;;2.65;1.23;;;10.00;90.50;;;;;;5017642;28;20101;-76
2021/12/07 13:17:06;;;;;;;1.73;0.80;;;10.00;90.70;;;;;;5017753;28;20042;-76
2021/12/07 13:19:52;;;;;;;2.17;1.30;;;10.00;90.80;;;;;;5017997;28;20061;-76
2021/12/07 13:22:19;;;;;;;5.30;1.52;;;9.90;91.00;;;;;;5017469;28;20631;-76
2021/12/07 13:24:46;;;;;;;4.60;1.38;;;10.00;90.70;;;;;;5017986;28;20086;-76
2021/12/07 13:27:14;;;;;;;4.40;1.20;;;10.00;90.40;;;;;;5017443;28;20034;-77
2021/12/07 13:29:52;;;;;;;1.75;1.10;;;10.00;90.50;;;;;;5032150;28;20144;-76
2021/12/07 13:32:19;;;;;;;2.88;1.30;;;10.00;90.30;;;;;;5017186;28;20022;-76
2021/12/07 13:34:45;;;;;;;2.67;1.33;;;9.90;90.50;;;;;;5016433;28;20056;-76
2021/12/07 13:37:12;;;;;;;3.13;1.05;;;9.90;90.50;;;;;;5017266;28;20065;-76
2021/12/07 13:39:48;;;;;;;4.57;1.13;;;9.90;90.50;;;;;;5017312;28;20058;-76
2021/12/07 13:42:16;;;;;;;5.05;2.03;;;9.80;90.30;;;;;;5015847;28;20037;-76
2021/12/07 13:44:57;;;;;;;4.72;1.13;;;9.90;90.20;;;;;;5025607;28;20025;-76
2021/12/07 13:47:24;;;;;;;;;;;9.90;90.30;;;;;;5055777;28;20060;-76
2021/12/07 13:49:54;;;;;;;2.47;1.10;;;9.90;90.20;;;;;;5056825;28;19916;-76
2021/12/07 13:52:24;;;;;;;2.20;1.23;;;9.90;90.00;;;;;;5056593;28;20080;-76
2021/12/07 13:54:53;;;;;;;4.85;1.02;;;10.00;90.00;;;;;;5055345;28;20061;-76
2021/12/07 13:57:26;;;;;;;3.93;1.43;;;10.00;89.50;;;;;;5037553;28;20034;-76
2021/12/07 13:59:59;;;;;;;2.83;1.23;;;10.00;89.60;;;;;;5016881;28;20374;-76
2021/12/07 14:02:26;;;;;;;3.78;1.02;;;10.00;89.80;;;;;;5016969;28;20044;-77
2021/12/07 14:05:00;;;;;;;2.70;1.40;;;9.90;89.70;;;;;;5016815;28;20068;-76
2021/12/07 14:07:26;;;;;;;4.10;1.20;;;9.90;89.80;;;;;;5016123;28;20038;-76
2021/12/07 14:09:52;;;;;;;2.15;0.93;;;9.90;89.70;;;;;;5017154;28;20022;-76
2021/12/07 14:12:23;;;;;;;2.78;1.42;;;10.00;89.50;;;;;;5016560;28;20045;-76
2021/12/07 14:14:49;;;;;;;3.60;1.25;;;10.20;89.40;;;;;;5016522;28;20484;-76
2021/12/07 14:17:14;;;;;;;1.00;0.80;;;10.20;89.00;;;;;;5016328;28;20049;-76
2021/12/07 14:19:40;;;;;;;1.58;0.80;;;10.20;89.20;;;;;;5016696;28;20100;-76
2021/12/07 14:22:05;;;;;;;1.48;0.80;;;10.20;89.00;;;;;;5015075;28;20510;-76
2021/12/07 14:24:31;;;;;;;1.77;1.25;;;10.10;89.10;;;;;;5015132;28;20040;-76
2021/12/07 14:26:57;;;;;;;0.95;0.85;;;10.10;89.00;;;;;;5016326;28;20117;-76
2021/12/07 14:29:25;;;;;;;8.32;1.13;;;10.20;89.00;;;;;;5030754;28;20492;-76
2021/12/07 14:31:56;;;;;;;2.83;1.10;;;10.20;88.90;;;;;;5031674;28;20033;-76
2021/12/07 14:34:25;;;;;;;2.85;1.63;;;10.20;89.20;;;;;;5016551;28;20022;-76
2021/12/07 14:36:56;;;;;;;5.18;1.38;;;10.20;89.10;;;;;;5015955;28;20053;-76
2021/12/07 14:39:28;;;;;;;1.75;1.08;;;10.20;89.40;;;;;;5015887;28;20022;-76
2021/12/07 14:42:05;;;;;;;2.33;1.35;;;10.20;89.60;;;;;;5015808;28;20026;-76
2021/12/07 14:44:37;;;;;;;2.42;1.35;;;10.10;89.70;;;;;;5018564;28;20030;-76
2021/12/07 14:47:06;;;;;;;3.45;1.30;;;10.00;90.30;;;;;;5055524;28;20048;-76
2021/12/07 14:49:34;;;;;;;1.92;1.23;;;10.10;90.50;;;;;;5034252;28;20029;-76
2021/12/07 14:52:00;;;;;;;2.25;1.42;;;10.10;90.60;;;;;;5015940;28;20026;-76
2021/12/07 14:54:26;;;;;;;1.38;0.90;;;10.10;90.50;;;;;;5015860;28;20030;-76
2021/12/07 14:56:55;;;;;;;1.13;0.73;;;10.00;90.50;;;;;;5015330;28;20038;-76
2021/12/07 14:59:22;;;;;;;1.23;0.93;;;10.00;90.60;;;;;;5015644;28;20030;-76
2021/12/07 15:01:55;;;;;;;3.53;1.25;;;10.00;90.70;;;;;;5015656;28;20030;-76
2021/12/07 15:04:22;;;;;;;2.55;1.70;;;10.00;91.10;;;;;;5016170;28;20036;-76
2021/12/07 15:07:03;;;;;;;6.55;3.53;;;10.10;91.20;;;;;;5015287;28;20025;-76
2021/12/07 15:09:34;;;;;;;5.22;2.50;;;10.20;90.90;;;;;;5015787;28;20022;-76
2021/12/07 15:12:00;;;;;;;10.57;2.63;;;10.30;90.00;;;;;;5015571;28;20033;-76
2021/12/07 15:14:29;;;;;;;9.18;2.17;;;10.30;89.20;;;;;;5015723;28;20547;-77
2021/12/07 15:17:01;;;;;;;14.57;2.33;;;10.30;88.60;;;;;;5015422;28;20100;-76
2021/12/07 15:19:28;;;;;;;19.55;2.80;;;10.30;87.30;;;;;;5015428;28;20083;-76
2021/12/07 15:21:55;;;;;;;24.95;3.47;;;10.30;87.20;;;;;;5014474;28;20118;-76
2021/12/07 15:24:23;;;;;;;17.80;3.42;;;10.20;86.50;;;;;;5016067;28;20030;-76
2021/12/07 15:26:52;;;;;;;9.73;2.65;;;10.30;87.20;;;;;;5015376;28;20030;-76
2021/12/07 15:29:29;;;;;;;19.30;2.53;;;10.30;86.90;;;;;;5029147;28;20022;-76
2021/12/07 15:32:02;;;;;;;19.20;2.88;;;10.30;87.10;;;;;;5016646;28;20133;-76
2021/12/07 15:34:32;;;;;;;16.65;3.25;;;10.30;86.80;;;;;;5014302;28;20057;-76
2021/12/07 15:37:06;;;;;;;13.75;3.65;;;10.30;86.90;;;;;;5014831;28;20021;-76
2021/12/07 15:39:37;;;;;;;19.98;3.63;;;10.40;87.30;;;;;;5015216;28;20447;-76
2021/12/07 15:42:13;;;;;;;19.67;3.92;;;10.40;87.00;;;;;;5015640;28;20057;-76
2021/12/07 15:44:52;;;;;;;16.45;3.20;;;10.50;87.00;;;;;;5034068;28;20029;-76
2021/12/07 15:47:29;;;;;;;12.77;3.67;;;10.50;86.80;;;;;;5053056;28;20044;-76
2021/12/07 15:49:58;;;;;;;20.00;3.53;;;10.40;87.20;;;;;;5046910;28;20022;-76
2021/12/07 15:52:30;;;;;;;25.00;4.57;;;10.30;86.60;;;;;;5014993;28;20381;-76
2021/12/07 15:54:59;;;;;;;18.23;3.95;;;10.20;86.70;;;;;;5013569;28;20038;-76
2021/12/07 15:57:26;;;;;;;22.17;4.72;;;10.20;86.60;;;;;;5015190;28;20118;-76
2021/12/07 15:59:58;;;;;;;16.65;3.72;;;10.00;86.60;;;;;;5015170;28;20030;-76
2021/12/07 16:02:25;;;;;;;24.73;4.30;;;9.90;87.50;;;;;;5015331;28;20029;-76
2021/12/07 16:04:50;;;;;;;17.05;3.85;;;9.80;87.40;;;;;;5013615;28;20112;-76
2021/12/07 16:07:21;;;;;;;20.92;4.35;;;9.80;87.20;;;;;;5015314;28;20053;-76
2021/12/07 16:10:05;;;;;;;15.57;5.82;;;9.80;86.70;;;;;;5019012;28;20030;-76
2021/12/07 16:12:31;;;;;;;19.77;7.70;;;9.70;87.40;;;;;;5017129;28;20037;-76
2021/12/07 16:15:07;;;;;;;22.35;7.53;;;9.70;87.30;;;;;;5018933;28;20022;-76
2021/12/07 16:17:33;;;;;;;19.30;5.70;;;9.60;87.00;;;;;;5038252;28;20165;-76
2021/12/07 16:19:59;;;;;;;15.98;5.38;;;9.50;86.60;;;;;;5025170;28;20034;-76
2021/12/07 16:22:24;;;;;;;24.70;5.50;;;9.40;87.00;;;;;;5018616;28;20036;-76
2021/12/07 16:24:50;;;;;;;20.05;5.25;;;9.30;86.80;;;;;;5018370;28;20030;-76
2021/12/07 16:27:15;;;;;;;12.35;3.88;;;9.30;87.00;;;;;;5017115;28;20488;-75
2021/12/07 16:30:06;;;;;;;17.23;3.42;;;9.20;87.20;;;;;;5034045;28;20476;-76
2021/12/07 16:32:32;;;;;;;;;;;9.20;87.90;;;;;;5034038;28;20073;-76
2021/12/07 16:34:57;;;;;;;16.58;3.42;;;9.20;87.20;;;;;;5018563;28;20307;-76
2021/12/07 16:37:23;;;;;;;20.75;3.70;;;9.20;87.60;;;;;;5018683;28;20030;-76
2021/12/07 16:39:51;;;;;;;15.15;3.22;;;9.20;87.90;;;;;;5018392;28;20022;-75
2021/12/07 16:42:19;;;;;;;17.98;4.07;;;9.20;87.10;;;;;;5018129;28;20061;-76
2021/12/07 16:44:45;;;;;;;15.20;3.42;;;9.20;87.20;;;;;;5025639;28;20348;-76
2021/12/07 16:47:11;;;;;;;22.15;4.15;;;9.20;87.30;;;;;;5025850;28;20060;-76
2021/12/07 16:49:37;;;;;;;16.23;3.00;;;9.10;87.10;;;;;;5018124;28;20026;-76
2021/12/07 16:52:04;;;;;;;22.30;3.45;;;9.10;86.90;;;;;;5027094;28;20123;-76
2021/12/07 16:54:30;;;;;;;24.88;3.47;;;9.00;86.50;;;;;;5031439;28;20026;-76